EST,Max TemperatureF,Mean TemperatureF,Min TemperatureF,Max Dew PointF,MeanDew PointF,Min DewpointF,Max Humidity, Mean Humidity, Min Humidity, Max Sea Level PressureIn, Mean Sea Level PressureIn, Min Sea Level PressureIn, Max VisibilityMiles, Mean VisibilityMiles, Min VisibilityMiles, Max Wind SpeedMPH, Mean Wind SpeedMPH, Max Gust SpeedMPH,PrecipitationIn, CloudCover, Events, WindDirDegrees
2012-11-1,49,43,36,36,31,26,85,64,42,29.86,29.80,29.74,10,10,10,21,11,28,0.00,6,,309
2012-11-2,46,38,30,32,30,28,85,69,53,30.15,30.01,29.86,10,10,10,17,10,24,0.00,5,,330
2012-11-3,42,35,27,30,28,25,100,80,60,30.25,30.20,30.13,10,10,9,10,4,13,0.00,4,,1
2012-11-4,40,33,26,31,27,23,89,74,59,30.24,30.22,30.18,10,10,9,9,2,12,0.00,5,,22
2012-11-5,44,33,21,29,24,19,96,75,53,30.26,30.21,30.16,10,8,4,8,2,10,0.00,1,,98
2012-11-6,46,34,22,30,26,21,88,71,53,30.17,30.05,29.97,10,8,4,14,5,81,0.00,4,,138
2012-11-7,49,40,30,30,29,27,89,68,46,30.18,30.08,29.98,10,8,6,10,4,14,0.00,2,,44
2012-11-8,47,36,25,36,30,24,92,79,65,30.25,30.19,30.14,7,4,2,10,3,14,0.00,4,,205
2012-11-9,58,44,30,43,37,30,100,74,47,30.19,30.13,30.06,8,5,2,16,6,20,T,3,,161
2012-11-10,65,59,52,50,45,43,71,64,56,30.09,30.03,29.89,10,9,6,31,11,39,T,4,Rain,161
2012-11-11,68,61,53,50,46,43,72,61,49,30.07,29.97,29.88,10,10,10,30,17,37,T,2,,179
2012-11-12,61,47,33,50,37,23,96,74,51,30.30,30.02,29.90,10,8,2,23,14,31,0.31,8,Rain-Snow,251
2012-11-13,38,33,27,22,21,19,81,67,52,30.55,30.46,30.32,10,10,9,16,4,23,T,5,,287
2012-11-14,42,33,23,25,23,20,88,71,54,30.60,30.53,30.45,10,9,6,10,3,13,0.00,0,,149
2012-11-15,44,34,23,30,26,21,100,77,53,30.45,30.41,30.36,10,6,2,7,1,10,0.00,0,,188
2012-11-16,52,38,23,37,27,21,100,72,44,30.52,30.44,30.37,10,3,0,7,1,9,0.00,0,Fog,197
2012-11-17,53,39,24,32,27,23,100,69,38,30.61,30.55,30.51,10,4,0,10,2,14,0.00,0,Fog,133
2012-11-18,56,43,29,35,31,28,92,65,38,30.53,30.48,30.41,10,6,1,10,3,13,0.00,0,,138
2012-11-19,57,45,33,35,32,30,82,63,43,30.39,30.29,30.17,10,8,5,9,3,12,0.00,0,,161
2012-11-20,51,44,36,42,38,33,92,76,60,30.18,30.14,30.09,9,6,2,8,1,8,T,6,Rain,202
2012-11-21,53,43,32,45,38,32,100,89,77,30.27,30.20,30.15,5,2,0,12,4,13,0.00,1,Fog,179
2012-11-22,61,50,39,47,42,39,100,76,51,30.15,30.02,29.78,10,4,1,24,13,32,0.03,2,Rain,186
2012-11-23,55,43,30,48,29,23,85,75,64,30.11,29.92,29.76,10,8,2,29,16,37,0.02,8,Rain-Snow,276
2012-11-24,32,30,28,25,22,19,78,71,63,30.19,30.13,30.05,10,10,6,21,10,25,T,8,Snow,295
2012-11-25,38,32,26,28,25,20,92,81,69,30.05,29.94,29.87,10,8,5,16,8,20,T,7,Snow,227
2012-11-26,35,32,28,28,24,20,92,74,56,30.34,30.21,30.05,10,9,6,12,5,14,0.00,8,,342
2012-11-27,37,31,24,21,18,15,81,64,47,30.40,30.33,30.27,10,10,10,12,5,14,0.00,3,,306
2012-11-28,43,35,26,26,21,15,85,65,45,30.35,30.31,30.24,10,10,8,17,8,23,0.00,5,,234
2012-11-29,49,38,27,30,26,21,85,64,42,30.32,30.25,30.19,10,8,4,15,8,21,0.00,1,,189
2012-11-30,47,41,35,33,31,30,89,74,58,30.22,30.16,30.12,8,6,4,9,4,12,T,6,Rain,88